createdAt,value
2017-12-25T00:00:10.998Z,101052.16
2017-12-25T00:02:38.439Z,101041.00
2017-12-25T00:05:05.864Z,101046.39
2017-12-25T00:07:33.308Z,101044.64
2017-12-25T00:10:00.706Z,101055.06
2017-12-25T00:12:28.121Z,101043.61
2017-12-25T00:14:55.536Z,101049.20
2017-12-25T00:17:22.953Z,101043.09
2017-12-25T00:19:50.377Z,101044.57
2017-12-25T00:22:17.819Z,101047.17
2017-12-25T00:24:45.226Z,101045.95
2017-12-25T00:27:12.648Z,101045.82
2017-12-25T00:29:40.098Z,101039.05
2017-12-25T00:32:07.505Z,101044.03
2017-12-25T00:34:34.908Z,101038.78
2017-12-25T00:37:02.345Z,101036.05
2017-12-25T00:39:29.745Z,101031.81
2017-12-25T00:41:57.148Z,101027.59
2017-12-25T00:44:24.660Z,101031.07
2017-12-25T00:46:52.064Z,101022.96
2017-12-25T00:49:19.497Z,101018.44
2017-12-25T00:51:46.938Z,101023.98
2017-12-25T00:54:14.352Z,101026.73
2017-12-25T00:56:41.769Z,101026.05
2017-12-25T00:59:09.291Z,101020.85
2017-12-25T01:01:36.694Z,101018.31
2017-12-25T01:04:04.101Z,101012.59
2017-12-25T01:06:31.526Z,101017.28
2017-12-25T01:08:58.959Z,101016.27
2017-12-25T01:11:26.344Z,101020.04
2017-12-25T01:13:53.769Z,101009.84
2017-12-25T01:16:21.185Z,101013.78
2017-12-25T01:18:48.594Z,101012.63
2017-12-25T01:21:16.018Z,101004.47
2017-12-25T01:23:43.430Z,101005.31
2017-12-25T01:26:10.833Z,101010.71
2017-12-25T01:28:38.261Z,101005.66
2017-12-25T01:31:05.682Z,101003.42
2017-12-25T01:33:33.086Z,101003.55
2017-12-25T01:36:00.592Z,101006.27
2017-12-25T01:38:27.993Z,101004.42
2017-12-25T01:40:55.393Z,100999.05
2017-12-25T01:43:22.806Z,101001.59
2017-12-25T01:45:50.197Z,100999.78
2017-12-25T01:48:17.605Z,101003.64
2017-12-25T01:50:45.021Z,100999.11
2017-12-25T01:53:12.439Z,100998.86
2017-12-25T01:55:39.845Z,101000.78
2017-12-25T01:58:23.025Z,101004.66
2017-12-25T02:03:52.933Z,100998.87
2017-12-25T02:06:32.080Z,101000.09
2017-12-25T02:08:59.513Z,100990.30
2017-12-25T02:11:26.943Z,100988.40
2017-12-25T02:13:54.338Z,100996.16
2017-12-25T02:16:21.769Z,100989.63
2017-12-25T02:18:49.192Z,100985.91
2017-12-25T02:21:16.596Z,100982.39
2017-12-25T02:23:44.108Z,100976.58
2017-12-25T02:26:11.517Z,100980.36
2017-12-25T02:28:38.933Z,100973.67
2017-12-25T02:31:06.446Z,100971.95
2017-12-25T02:33:33.861Z,100968.93
2017-12-25T02:36:01.277Z,100968.97
2017-12-25T02:38:28.714Z,100959.52
2017-12-25T02:40:56.117Z,100959.17
2017-12-25T02:43:23.521Z,100959.33
2017-12-25T02:45:50.983Z,100950.81
2017-12-25T02:48:18.381Z,100950.00
2017-12-25T02:50:45.794Z,100949.11
2017-12-25T02:53:13.208Z,100950.62
2017-12-25T02:55:40.607Z,100947.08
2017-12-25T02:58:08.017Z,100937.71
2017-12-25T03:00:35.425Z,100944.38
2017-12-25T03:03:02.837Z,100941.86
2017-12-25T03:05:30.245Z,100944.26
2017-12-25T03:07:57.685Z,100936.74
2017-12-25T03:10:25.086Z,100937.77
2017-12-25T03:12:52.498Z,100933.97
2017-12-25T03:15:19.919Z,100936.67
2017-12-25T03:17:47.337Z,100930.59
2017-12-25T03:20:14.749Z,100933.89
2017-12-25T03:22:42.169Z,100931.11
2017-12-25T03:25:09.594Z,100929.67
2017-12-25T03:27:37.009Z,100921.84
2017-12-25T03:30:04.432Z,100929.47
2017-12-25T03:32:31.837Z,100918.06
2017-12-25T03:34:59.247Z,100919.29
2017-12-25T03:37:26.691Z,100917.95
2017-12-25T03:39:54.096Z,100912.55
2017-12-25T03:42:21.505Z,100914.87
2017-12-25T03:44:48.952Z,100909.56
2017-12-25T03:47:16.354Z,100903.24
2017-12-25T03:49:43.754Z,100897.61
2017-12-25T03:52:11.181Z,100897.44
2017-12-25T03:54:38.617Z,100895.78
2017-12-25T03:57:06.027Z,100891.42
2017-12-25T03:59:33.449Z,100893.08
2017-12-25T04:02:00.862Z,100881.03
2017-12-25T04:04:28.269Z,100884.05
2017-12-25T04:06:55.709Z,100875.55
2017-12-25T04:09:23.125Z,100880.21
2017-12-25T04:11:50.545Z,100867.44
2017-12-25T04:14:17.992Z,100869.57
2017-12-25T04:16:45.400Z,100867.97
2017-12-25T04:19:12.818Z,100861.84
2017-12-25T04:21:40.254Z,100857.64
2017-12-25T04:24:07.653Z,100848.26
2017-12-25T04:26:35.066Z,100850.39
2017-12-25T04:29:02.581Z,100851.77
2017-12-25T04:31:29.993Z,100846.16
2017-12-25T04:33:57.401Z,100839.89
2017-12-25T04:36:24.833Z,100835.34
2017-12-25T04:38:52.233Z,100839.55
2017-12-25T04:41:19.642Z,100830.66
2017-12-25T04:43:47.065Z,100834.86
2017-12-25T04:46:14.477Z,100827.05
2017-12-25T04:48:41.881Z,100833.28
2017-12-25T04:51:09.309Z,100826.56
2017-12-25T04:53:36.713Z,100822.60
2017-12-25T04:56:04.140Z,100825.34
2017-12-25T04:58:31.549Z,100817.84
2017-12-25T05:00:58.945Z,100824.81
2017-12-25T05:03:26.360Z,100822.57
2017-12-25T05:05:53.798Z,100823.06
2017-12-25T05:08:21.200Z,100825.03
2017-12-25T05:10:48.616Z,100814.34
2017-12-25T05:13:16.042Z,100815.50
2017-12-25T05:15:43.448Z,100810.70
2017-12-25T05:18:10.856Z,100812.77
2017-12-25T05:20:38.277Z,100811.86
2017-12-25T05:23:05.680Z,100810.91
2017-12-25T05:25:33.088Z,100810.73
2017-12-25T05:28:00.509Z,100814.91
2017-12-25T05:30:27.913Z,100803.21
2017-12-25T05:32:55.321Z,100808.33
2017-12-25T05:35:22.753Z,100804.44
2017-12-25T05:37:50.171Z,100801.25
2017-12-25T05:40:17.573Z,100790.43
2017-12-25T05:42:45.095Z,100795.86
2017-12-25T05:45:12.489Z,100794.77
2017-12-25T05:47:40.118Z,100797.53
2017-12-25T05:50:07.538Z,100789.23
2017-12-25T05:52:34.942Z,100793.44
2017-12-25T05:55:02.358Z,100785.66
2017-12-25T05:57:29.778Z,100789.55
2017-12-25T05:59:57.182Z,100782.69
2017-12-25T06:02:24.581Z,100785.35
2017-12-25T06:04:52.020Z,100785.06
2017-12-25T06:07:19.426Z,100784.34
2017-12-25T06:09:46.825Z,100777.46
2017-12-25T06:12:14.336Z,100780.65
2017-12-25T06:14:41.741Z,100782.52
2017-12-25T06:17:09.145Z,100781.98
2017-12-25T06:19:36.560Z,100779.53
2017-12-25T06:22:03.965Z,100786.28
2017-12-25T06:24:31.379Z,100773.16
2017-12-25T06:26:58.878Z,100783.74
2017-12-25T06:29:26.281Z,100774.58
2017-12-25T06:31:53.682Z,100776.11
2017-12-25T06:34:21.098Z,100770.33
2017-12-25T06:36:48.498Z,100775.41
2017-12-25T06:39:15.893Z,100770.86
2017-12-25T06:41:43.317Z,100766.65
2017-12-25T06:44:10.721Z,100765.14
2017-12-25T06:46:38.125Z,100767.18
2017-12-25T06:49:05.543Z,100766.59
2017-12-25T06:51:32.945Z,100762.23
2017-12-25T06:54:00.345Z,100763.69
2017-12-25T06:56:27.758Z,100756.54
2017-12-25T06:58:55.185Z,100758.81
2017-12-25T07:01:22.643Z,100756.50
2017-12-25T07:03:50.166Z,100751.77
2017-12-25T07:06:17.565Z,100755.52
2017-12-25T07:08:44.983Z,100752.13
2017-12-25T07:11:12.405Z,100744.12
2017-12-25T07:13:39.809Z,100745.94
2017-12-25T07:16:07.207Z,100742.44
2017-12-25T07:18:34.629Z,100737.00
2017-12-25T07:21:02.030Z,100738.23
2017-12-25T07:23:29.432Z,100729.09
2017-12-25T07:25:56.934Z,100732.32
2017-12-25T07:28:24.329Z,100731.33
2017-12-25T07:30:51.734Z,100730.42
2017-12-25T07:33:19.147Z,100719.78
2017-12-25T07:35:46.549Z,100733.27
2017-12-25T07:38:13.958Z,100723.29
2017-12-25T07:40:41.379Z,100733.66
2017-12-25T07:43:08.777Z,100718.10
2017-12-25T07:45:36.177Z,100720.20
2017-12-25T07:48:03.596Z,100717.61
2017-12-25T07:50:30.992Z,100717.19
2017-12-25T07:52:58.387Z,100718.13
2017-12-25T07:55:25.797Z,100709.39
2017-12-25T07:57:53.201Z,100711.41
2017-12-25T08:00:20.598Z,100705.25
2017-12-25T08:02:48.031Z,100708.02
2017-12-25T08:05:15.425Z,100701.98
2017-12-25T08:07:42.846Z,100707.39
2017-12-25T08:10:10.270Z,100705.45
2017-12-25T08:12:37.670Z,100702.62
2017-12-25T08:15:05.085Z,100702.06
2017-12-25T08:17:32.514Z,100704.52
2017-12-25T08:19:59.919Z,100702.27
2017-12-25T08:22:27.327Z,100705.47
2017-12-25T08:24:54.729Z,100710.16
2017-12-25T08:27:22.141Z,100705.56
2017-12-25T08:29:49.542Z,100703.34
2017-12-25T08:32:16.949Z,100708.07
2017-12-25T08:34:45.353Z,100702.44
2017-12-25T08:37:13.013Z,100700.12
2017-12-25T08:39:40.425Z,100695.39
2017-12-25T08:42:07.821Z,100689.75
2017-12-25T08:44:35.234Z,100693.61
2017-12-25T08:47:02.689Z,100699.05
2017-12-25T08:49:30.088Z,100689.70
2017-12-25T08:51:57.485Z,100692.80
2017-12-25T08:54:25.006Z,100689.83
2017-12-25T08:56:52.415Z,100687.52
2017-12-25T08:59:19.833Z,100691.11
2017-12-25T09:01:47.270Z,100687.86
2017-12-25T09:04:14.702Z,100681.88
2017-12-25T09:06:42.110Z,100681.06
2017-12-25T09:09:09.571Z,100683.20
2017-12-25T09:11:36.979Z,100686.98
2017-12-25T09:14:04.449Z,100692.20
2017-12-25T09:16:31.868Z,100691.25
2017-12-25T09:18:59.279Z,100700.88
2017-12-25T09:21:26.695Z,100696.81
2017-12-25T09:23:54.126Z,100687.39
2017-12-25T09:26:21.537Z,100692.09
2017-12-25T09:28:48.966Z,100694.44
2017-12-25T09:31:16.365Z,100690.52
2017-12-25T09:33:43.775Z,100687.72
2017-12-25T09:36:11.179Z,100690.87
2017-12-25T09:38:38.598Z,100698.37
2017-12-25T09:41:06.002Z,100696.94
2017-12-25T09:43:33.405Z,100702.78
2017-12-25T09:46:00.821Z,100699.94
2017-12-25T09:48:28.234Z,100694.55
2017-12-25T09:50:55.651Z,100696.09
2017-12-25T09:53:23.065Z,100689.80
2017-12-25T09:55:50.479Z,100689.16
2017-12-25T09:58:17.881Z,100685.06
2017-12-25T10:00:45.293Z,100679.50
2017-12-25T10:03:12.694Z,100679.73
2017-12-25T10:05:40.118Z,100671.39
2017-12-25T10:08:07.529Z,100665.68
2017-12-25T10:10:34.933Z,100659.44
2017-12-25T10:13:02.338Z,100654.09
2017-12-25T10:15:29.790Z,100650.55
2017-12-25T10:17:57.200Z,100643.34
2017-12-25T10:20:24.605Z,100637.23
2017-12-25T10:22:52.051Z,100637.78
2017-12-25T10:25:19.453Z,100630.11
2017-12-25T10:27:46.857Z,100627.23
2017-12-25T10:30:14.286Z,100618.28
2017-12-25T10:32:41.697Z,100618.79
2017-12-25T10:35:09.156Z,100617.45
2017-12-25T10:37:36.561Z,100612.02
2017-12-25T10:40:04.983Z,100607.65
2017-12-25T10:42:32.421Z,100601.97
2017-12-25T10:44:59.809Z,100593.75
2017-12-25T10:47:27.214Z,100596.58
2017-12-25T10:49:58.107Z,100587.80
2017-12-25T10:52:25.513Z,100583.00
2017-12-25T10:54:52.920Z,100581.09
2017-12-25T10:57:20.321Z,100580.77
2017-12-25T10:59:47.871Z,100571.55
2017-12-25T11:02:15.364Z,100571.62
2017-12-25T11:04:42.934Z,100566.93
2017-12-25T11:07:10.369Z,100562.42
2017-12-25T11:09:37.825Z,100568.97
2017-12-25T11:12:05.255Z,100565.41
2017-12-25T11:14:32.684Z,100551.25
2017-12-25T11:17:00.103Z,100549.03
2017-12-25T11:19:27.515Z,100544.33
2017-12-25T11:21:54.978Z,100542.00
2017-12-25T11:24:22.389Z,100535.55
2017-12-25T11:26:49.797Z,100524.23
2017-12-25T11:29:17.221Z,100517.16
2017-12-25T11:34:11.317Z,100505.45
2017-12-25T11:36:38.729Z,100507.10
2017-12-25T11:39:06.158Z,100503.69
2017-12-25T11:41:33.562Z,100504.84
2017-12-25T11:44:01.078Z,100498.40
2017-12-25T11:46:28.489Z,100495.67
2017-12-25T11:48:55.889Z,100485.73
2017-12-25T11:51:23.401Z,100486.80
2017-12-25T11:53:50.909Z,100476.77
2017-12-25T11:56:18.322Z,100470.54
2017-12-25T11:58:45.845Z,100468.98
2017-12-25T12:01:13.253Z,100464.06
2017-12-25T12:03:40.658Z,100455.06
2017-12-25T12:06:08.073Z,100453.32
2017-12-25T12:08:35.476Z,100440.73
2017-12-25T12:11:02.897Z,100441.45
2017-12-25T12:13:30.364Z,100437.77
2017-12-25T12:15:57.770Z,100427.73
2017-12-25T12:18:25.177Z,100423.84
2017-12-25T12:20:52.688Z,100423.84
2017-12-25T12:23:20.130Z,100418.20
2017-12-25T12:25:47.537Z,100421.69
2017-12-25T12:28:14.961Z,100418.37
2017-12-25T12:30:42.366Z,100413.47
2017-12-25T12:33:09.769Z,100405.05
2017-12-25T12:35:37.191Z,100403.34
2017-12-25T12:38:04.600Z,100394.02
2017-12-25T12:40:32.013Z,100394.41
2017-12-25T12:42:59.424Z,100379.57
2017-12-25T12:45:26.837Z,100369.33
2017-12-25T12:47:54.244Z,100372.19
2017-12-25T12:50:21.652Z,100362.45
2017-12-25T12:52:49.061Z,100360.30
2017-12-25T12:55:16.464Z,100354.98
2017-12-25T12:57:43.985Z,100349.77
2017-12-25T13:00:11.385Z,100343.19
2017-12-25T13:02:38.789Z,100337.25
2017-12-25T13:05:06.253Z,100327.93
2017-12-25T13:07:33.704Z,100327.52
2017-12-25T13:10:01.154Z,100322.72
2017-12-25T13:12:29.113Z,100324.05
2017-12-25T13:14:56.521Z,100326.91
2017-12-25T13:17:23.935Z,100321.80
2017-12-25T13:19:51.373Z,100315.64
2017-12-25T13:22:18.790Z,100317.19
2017-12-25T13:24:46.199Z,100316.66
2017-12-25T13:27:13.613Z,100305.59
2017-12-25T13:29:41.023Z,100304.98
2017-12-25T13:32:08.462Z,100302.94
2017-12-25T13:34:35.867Z,100304.48
2017-12-25T13:37:03.269Z,100296.08
2017-12-25T13:39:30.675Z,100294.14
2017-12-25T13:41:58.185Z,100290.76
2017-12-25T13:44:25.608Z,100292.09
2017-12-25T13:46:53.001Z,100291.89
2017-12-25T13:49:20.418Z,100291.88
2017-12-25T13:51:47.825Z,100287.17
2017-12-25T13:54:15.230Z,100282.75
2017-12-25T13:56:42.642Z,100283.06
2017-12-25T13:59:10.053Z,100275.07
2017-12-25T14:01:37.477Z,100271.30
2017-12-25T14:04:04.889Z,100270.16
2017-12-25T14:06:32.297Z,100270.70
2017-12-25T14:08:59.747Z,100268.23
2017-12-25T14:11:27.153Z,100262.29
2017-12-25T14:13:54.550Z,100268.17
2017-12-25T14:16:21.947Z,100267.98
2017-12-25T14:18:49.356Z,100262.12
2017-12-25T14:21:16.765Z,100257.02
2017-12-25T14:23:44.167Z,100251.48
2017-12-25T14:26:11.601Z,100252.30
2017-12-25T14:28:39.021Z,100255.57
2017-12-25T14:31:06.445Z,100243.10
2017-12-25T14:33:33.890Z,100244.30
2017-12-25T14:36:01.297Z,100246.16
2017-12-25T14:38:28.697Z,100241.75
2017-12-25T14:40:56.118Z,100240.39
2017-12-25T14:43:23.533Z,100239.84
2017-12-25T14:45:50.937Z,100236.38
2017-12-25T14:48:18.380Z,100236.96
2017-12-25T14:50:45.789Z,100233.69
2017-12-25T14:53:13.198Z,100233.19
2017-12-25T14:55:40.638Z,100231.72
2017-12-25T14:58:08.048Z,100228.23
2017-12-25T15:00:35.460Z,100222.22
2017-12-25T15:03:02.973Z,100219.73
2017-12-25T15:05:30.375Z,100225.23
2017-12-25T15:07:57.774Z,100221.89
2017-12-25T15:10:25.290Z,100229.33
2017-12-25T15:12:52.697Z,100219.81
2017-12-25T15:15:20.105Z,100215.41
2017-12-25T15:17:47.534Z,100212.33
2017-12-25T15:20:14.944Z,100204.15
2017-12-25T15:22:42.346Z,100205.38
2017-12-25T15:25:09.785Z,100198.34
2017-12-25T15:27:37.190Z,100201.79
2017-12-25T15:30:04.597Z,100198.48
2017-12-25T15:32:32.006Z,100199.81
2017-12-25T15:34:59.409Z,100197.88
2017-12-25T15:37:26.817Z,100195.80
2017-12-25T15:39:54.229Z,100197.01
2017-12-25T15:42:21.637Z,100191.38
2017-12-25T15:44:49.053Z,100189.61
2017-12-25T15:47:16.565Z,100185.72
2017-12-25T15:49:43.965Z,100182.56
2017-12-25T15:52:11.370Z,100184.17
2017-12-25T15:54:38.890Z,100194.69
2017-12-25T15:57:06.310Z,100182.43
2017-12-25T15:59:33.709Z,100178.35
2017-12-25T16:02:01.223Z,100176.01
2017-12-25T16:04:28.626Z,100179.36
2017-12-25T16:06:56.021Z,100177.61
2017-12-25T16:09:23.459Z,100168.61
2017-12-25T16:11:50.852Z,100171.47
2017-12-25T16:14:18.253Z,100162.68
2017-12-25T16:16:45.711Z,100174.28
2017-12-25T16:19:13.102Z,100171.73
2017-12-25T16:21:40.510Z,100176.64
2017-12-25T16:24:07.945Z,100173.06
2017-12-25T16:26:35.353Z,100169.86
2017-12-25T16:29:02.753Z,100163.01
2017-12-25T16:31:30.165Z,100160.42
2017-12-25T16:33:57.567Z,100155.83
2017-12-25T16:36:24.960Z,100157.16
2017-12-25T16:38:52.379Z,100153.98
2017-12-25T16:41:19.773Z,100151.31
2017-12-25T16:43:47.174Z,100144.68
2017-12-25T16:46:14.601Z,100147.52
2017-12-25T16:48:41.997Z,100139.25
2017-12-25T16:51:09.400Z,100138.83
2017-12-25T16:53:36.826Z,100129.94
2017-12-25T16:56:04.228Z,100127.29
2017-12-25T16:58:31.645Z,100120.05
2017-12-25T17:00:59.077Z,100126.13
2017-12-25T17:03:26.478Z,100118.05
2017-12-25T17:05:53.882Z,100111.34
2017-12-25T17:08:21.326Z,100117.54
2017-12-25T17:10:48.730Z,100119.50
2017-12-25T17:13:16.138Z,100112.14
2017-12-25T17:15:43.562Z,100106.70
2017-12-25T17:18:10.974Z,100114.14
2017-12-25T17:20:38.387Z,100104.34
2017-12-25T17:23:05.830Z,100105.42
2017-12-25T17:25:33.220Z,100103.23
2017-12-25T17:28:00.625Z,100105.39
2017-12-25T17:30:28.049Z,100098.64
2017-12-25T17:32:55.458Z,100093.93
2017-12-25T17:35:22.869Z,100090.84
2017-12-25T17:37:50.289Z,100082.68
2017-12-25T17:40:17.702Z,100092.13
2017-12-25T17:42:45.115Z,100082.88
2017-12-25T17:45:12.541Z,100086.12
2017-12-25T17:47:39.944Z,100081.16
2017-12-25T17:50:07.341Z,100079.75
2017-12-25T17:52:34.858Z,100066.81
2017-12-25T17:55:02.265Z,100071.00
2017-12-25T17:57:29.674Z,100059.27
2017-12-25T17:59:57.102Z,100066.16
2017-12-25T18:02:24.508Z,100056.75
2017-12-25T18:04:51.905Z,100053.64
2017-12-25T18:07:19.318Z,100053.48
2017-12-25T18:09:46.742Z,100042.40
2017-12-25T18:12:14.152Z,100037.28
2017-12-25T18:14:41.577Z,100028.91
2017-12-25T18:17:08.978Z,100020.94
2017-12-25T18:19:36.381Z,100022.06
2017-12-25T18:22:03.802Z,100013.41
2017-12-25T18:24:31.201Z,100008.86
2017-12-25T18:26:58.602Z,100012.28
2017-12-25T18:29:26.113Z,100004.91
2017-12-25T18:31:53.509Z,99998.38
2017-12-25T18:34:20.934Z,99984.95
2017-12-25T18:36:48.426Z,99982.59
2017-12-25T18:39:15.825Z,99985.31
2017-12-25T18:41:43.221Z,99979.83
2017-12-25T18:44:10.645Z,99980.59
2017-12-25T18:46:38.045Z,99974.98
2017-12-25T18:49:05.440Z,99971.11
2017-12-25T18:51:32.849Z,99967.30
2017-12-25T18:54:00.258Z,99966.28
2017-12-25T18:56:27.654Z,99962.13
2017-12-25T18:58:55.089Z,99958.39
2017-12-25T19:01:22.493Z,99954.78
2017-12-25T19:03:49.911Z,99950.52
2017-12-25T19:06:17.333Z,99948.45
2017-12-25T19:08:44.732Z,99944.03
2017-12-25T19:11:12.130Z,99946.45
2017-12-25T19:13:39.565Z,99944.49
2017-12-25T19:16:06.967Z,99949.25
2017-12-25T19:18:34.358Z,99946.91
2017-12-25T19:21:01.814Z,99947.17
2017-12-25T19:23:29.213Z,99942.53
2017-12-25T19:25:56.613Z,99939.72
2017-12-25T19:28:24.033Z,99937.61
2017-12-25T19:30:51.438Z,99930.97
2017-12-25T19:33:18.834Z,99922.44
2017-12-25T19:35:46.253Z,99921.89
2017-12-25T19:38:13.649Z,99930.88
2017-12-25T19:40:41.050Z,99932.16
2017-12-25T19:43:08.492Z,99925.88
2017-12-25T19:45:35.872Z,99920.41
2017-12-25T19:48:03.270Z,99919.50
2017-12-25T19:50:30.690Z,99922.72
2017-12-25T19:52:58.081Z,99911.02
2017-12-25T19:55:25.481Z,99903.39
2017-12-25T19:57:52.906Z,99903.98
2017-12-25T20:00:20.301Z,99903.75
2017-12-25T20:02:47.713Z,99891.53
2017-12-25T20:05:15.154Z,99895.77
2017-12-25T20:07:42.554Z,99886.59
2017-12-25T20:10:09.963Z,99890.52
2017-12-25T20:12:37.400Z,99880.89
2017-12-25T20:15:04.809Z,99878.84
2017-12-25T20:17:32.220Z,99870.17
2017-12-25T20:19:59.637Z,99864.78
2017-12-25T20:22:27.050Z,99862.01
2017-12-25T20:24:54.448Z,99865.40
2017-12-25T20:27:21.865Z,99864.70
2017-12-25T20:29:49.274Z,99870.95
2017-12-25T20:32:16.677Z,99866.88
2017-12-25T20:34:44.136Z,99857.44
2017-12-25T20:37:11.546Z,99851.66
2017-12-25T20:39:38.949Z,99853.08
2017-12-25T20:42:06.389Z,99847.47
2017-12-25T20:44:33.793Z,99846.36
2017-12-25T20:47:01.193Z,99832.84
2017-12-25T20:49:28.616Z,99827.73
2017-12-25T20:51:56.022Z,99818.36
2017-12-25T20:54:23.466Z,99814.70
2017-12-25T20:56:50.995Z,99814.50
2017-12-25T20:59:18.418Z,99817.45
2017-12-25T21:01:45.857Z,99815.12
2017-12-25T21:04:13.297Z,99810.92
2017-12-25T21:06:40.721Z,99808.77
2017-12-25T21:09:08.132Z,99807.18
2017-12-25T21:11:35.571Z,99801.79
2017-12-25T21:14:02.982Z,99792.03
2017-12-25T21:16:30.385Z,99791.09
2017-12-25T21:18:57.802Z,99790.64
2017-12-25T21:21:25.209Z,99793.39
2017-12-25T21:23:52.635Z,99783.38
2017-12-25T21:26:20.074Z,99780.96
2017-12-25T21:28:47.473Z,99766.02
2017-12-25T21:31:14.877Z,99760.78
2017-12-25T21:33:42.340Z,99744.00
2017-12-25T21:36:09.797Z,99742.66
2017-12-25T21:38:37.201Z,99753.09
2017-12-25T21:41:04.634Z,99742.98
2017-12-25T21:43:32.041Z,99734.63
2017-12-25T21:45:59.445Z,99730.05
2017-12-25T21:48:26.854Z,99728.00
2017-12-25T21:50:54.258Z,99725.35
2017-12-25T21:53:21.662Z,99726.77
2017-12-25T21:55:49.081Z,99725.00
2017-12-25T21:58:16.485Z,99734.28
2017-12-25T22:00:43.892Z,99736.36
2017-12-25T22:03:11.302Z,99727.41
2017-12-25T22:05:38.705Z,99720.19
2017-12-25T22:08:06.130Z,99719.46
2017-12-25T22:10:33.558Z,99712.72
2017-12-25T22:13:00.971Z,99701.16
2017-12-25T22:15:28.373Z,99697.97
2017-12-25T22:17:55.790Z,99697.48
2017-12-25T22:20:23.186Z,99704.72
2017-12-25T22:22:50.593Z,99707.80
2017-12-25T22:25:18.105Z,99708.95
2017-12-25T22:27:45.509Z,99703.22
2017-12-25T22:30:12.917Z,99699.20
2017-12-25T22:32:40.358Z,99702.14
2017-12-25T22:35:07.761Z,99693.22
2017-12-25T22:37:35.454Z,99697.41
2017-12-25T22:40:02.868Z,99696.80
2017-12-25T22:42:30.273Z,99693.19
2017-12-25T22:44:57.683Z,99684.40
2017-12-25T22:47:25.105Z,99673.25
2017-12-25T22:49:52.513Z,99659.39
2017-12-25T22:52:19.926Z,99654.91
2017-12-25T22:54:47.337Z,99659.88
2017-12-25T22:57:14.781Z,99647.12
2017-12-25T22:59:42.185Z,99642.61
2017-12-25T23:02:09.605Z,99646.23
2017-12-25T23:04:37.014Z,99642.27
2017-12-25T23:07:04.426Z,99634.03
2017-12-25T23:09:31.853Z,99630.91
2017-12-25T23:11:59.259Z,99636.67
2017-12-25T23:14:26.666Z,99633.66
2017-12-25T23:16:54.081Z,99637.82
2017-12-25T23:19:21.489Z,99627.82
2017-12-25T23:21:48.917Z,99622.33
2017-12-25T23:24:16.434Z,99611.67
2017-12-25T23:26:43.849Z,99610.94
2017-12-25T23:29:11.251Z,99595.03
2017-12-25T23:31:38.665Z,99596.97
2017-12-25T23:34:06.114Z,99598.56
2017-12-25T23:36:33.513Z,99594.68
2017-12-25T23:39:00.958Z,99596.00
2017-12-25T23:41:28.361Z,99580.65
2017-12-25T23:43:55.765Z,99580.30
2017-12-25T23:46:23.204Z,99577.46
2017-12-25T23:48:50.605Z,99576.45
2017-12-25T23:51:18.020Z,99562.45
2017-12-25T23:53:45.433Z,99553.95
2017-12-25T23:56:12.834Z,99542.39
2017-12-25T23:58:40.241Z,99550.35
